sensor_id;sensor_type;location;lat;lon;timestamp;P1;durP1;ratioP1;P2;durP2;ratioP2
69854;SDS011;57146;48.140;16.304;2022-10-16T00:01:09;40.90;;;22.50;;
69854;SDS011;57146;48.140;16.304;2022-10-16T00:03:38;47.55;;;25.75;;
69854;SDS011;57146;48.140;16.304;2022-10-16T00:06:06;45.03;;;25.00;;
69854;SDS011;57146;48.140;16.304;2022-10-16T00:08:34;41.60;;;23.95;;
69854;SDS011;57146;48.140;16.304;2022-10-16T00:11:03;58.10;;;27.63;;
69854;SDS011;57146;48.140;16.304;2022-10-16T00:13:35;41.58;;;24.98;;
69854;SDS011;57146;48.140;16.304;2022-10-16T00:16:03;43.75;;;24.73;;
69854;SDS011;57146;48.140;16.304;2022-10-16T00:18:30;42.33;;;24.87;;
69854;SDS011;57146;48.140;16.304;2022-10-16T00:21:30;48.22;;;26.02;;
69854;SDS011;57146;48.140;16.304;2022-10-16T00:23:58;40.20;;;24.50;;
69854;SDS011;57146;48.140;16.304;2022-10-16T00:26:28;46.35;;;24.10;;
69854;SDS011;57146;48.140;16.304;2022-10-16T00:28:56;54.22;;;27.55;;
69854;SDS011;57146;48.140;16.304;2022-10-16T00:31:23;49.30;;;26.33;;
69854;SDS011;57146;48.140;16.304;2022-10-16T00:33:50;43.60;;;24.63;;
69854;SDS011;57146;48.140;16.304;2022-10-16T00:36:19;54.72;;;27.58;;
69854;SDS011;57146;48.140;16.304;2022-10-16T00:38:50;55.05;;;29.02;;
69854;SDS011;57146;48.140;16.304;2022-10-16T00:41:18;44.35;;;25.70;;
69854;SDS011;57146;48.140;16.304;2022-10-16T00:46:21;39.03;;;23.23;;
69854;SDS011;57146;48.140;16.304;2022-10-16T00:49:04;38.33;;;23.08;;
69854;SDS011;57146;48.140;16.304;2022-10-16T00:51:38;38.15;;;23.48;;
69854;SDS011;57146;48.140;16.304;2022-10-16T00:54:12;38.22;;;23.10;;
69854;SDS011;57146;48.140;16.304;2022-10-16T00:56:42;40.80;;;23.03;;
69854;SDS011;57146;48.140;16.304;2022-10-16T00:59:14;37.70;;;22.45;;
69854;SDS011;57146;48.140;16.304;2022-10-16T01:01:44;50.38;;;24.85;;
69854;SDS011;57146;48.140;16.304;2022-10-16T01:04:10;37.00;;;22.30;;
69854;SDS011;57146;48.140;16.304;2022-10-16T01:17:48;39.35;;;23.25;;
69854;SDS011;57146;48.140;16.304;2022-10-16T01:23:04;41.47;;;23.53;;
69854;SDS011;57146;48.140;16.304;2022-10-16T01:31:29;45.97;;;24.50;;
69854;SDS011;57146;48.140;16.304;2022-10-16T01:34:08;43.67;;;24.90;;
69854;SDS011;57146;48.140;16.304;2022-10-16T01:36:42;40.40;;;23.73;;
69854;SDS011;57146;48.140;16.304;2022-10-16T01:39:14;42.03;;;23.88;;
69854;SDS011;57146;48.140;16.304;2022-10-16T01:41:47;38.30;;;22.33;;
69854;SDS011;57146;48.140;16.304;2022-10-16T01:44:19;34.92;;;21.17;;
69854;SDS011;57146;48.140;16.304;2022-10-16T01:46:50;36.92;;;21.83;;
69854;SDS011;57146;48.140;16.304;2022-10-16T01:49:19;41.23;;;22.87;;
69854;SDS011;57146;48.140;16.304;2022-10-16T01:51:49;35.38;;;21.27;;
69854;SDS011;57146;48.140;16.304;2022-10-16T01:54:20;37.70;;;22.38;;
69854;SDS011;57146;48.140;16.304;2022-10-16T01:56:53;38.33;;;22.45;;
69854;SDS011;57146;48.140;16.304;2022-10-16T01:59:22;37.72;;;22.42;;
69854;SDS011;57146;48.140;16.304;2022-10-16T02:01:54;39.67;;;23.13;;
69854;SDS011;57146;48.140;16.304;2022-10-16T02:04:39;37.80;;;22.42;;
69854;SDS011;57146;48.140;16.304;2022-10-16T02:07:12;35.72;;;21.35;;
69854;SDS011;57146;48.140;16.304;2022-10-16T02:09:40;37.28;;;22.02;;
69854;SDS011;57146;48.140;16.304;2022-10-16T02:12:30;46.25;;;25.25;;
69854;SDS011;57146;48.140;16.304;2022-10-16T02:14:59;39.63;;;22.70;;
69854;SDS011;57146;48.140;16.304;2022-10-16T02:17:26;40.65;;;22.85;;
69854;SDS011;57146;48.140;16.304;2022-10-16T02:19:54;38.67;;;23.45;;
69854;SDS011;57146;48.140;16.304;2022-10-16T02:22:39;39.85;;;23.08;;
69854;SDS011;57146;48.140;16.304;2022-10-16T02:30:42;40.15;;;23.00;;
69854;SDS011;57146;48.140;16.304;2022-10-16T02:33:13;40.20;;;22.80;;
69854;SDS011;57146;48.140;16.304;2022-10-16T02:35:43;40.75;;;23.63;;
69854;SDS011;57146;48.140;16.304;2022-10-16T02:38:13;35.75;;;22.50;;
69854;SDS011;57146;48.140;16.304;2022-10-16T02:40:41;41.70;;;24.13;;
69854;SDS011;57146;48.140;16.304;2022-10-16T02:43:09;54.08;;;25.27;;
69854;SDS011;57146;48.140;16.304;2022-10-16T02:45:37;37.42;;;21.92;;
69854;SDS011;57146;48.140;16.304;2022-10-16T02:48:04;42.10;;;24.02;;
69854;SDS011;57146;48.140;16.304;2022-10-16T02:50:32;34.97;;;21.45;;
69854;SDS011;57146;48.140;16.304;2022-10-16T02:52:58;34.13;;;20.70;;
69854;SDS011;57146;48.140;16.304;2022-10-16T02:55:25;35.90;;;21.30;;
69854;SDS011;57146;48.140;16.304;2022-10-16T02:57:52;42.58;;;24.08;;
69854;SDS011;57146;48.140;16.304;2022-10-16T03:00:20;48.30;;;24.58;;
69854;SDS011;57146;48.140;16.304;2022-10-16T03:02:47;38.17;;;22.85;;
69854;SDS011;57146;48.140;16.304;2022-10-16T03:05:14;34.03;;;20.33;;
69854;SDS011;57146;48.140;16.304;2022-10-16T03:07:42;32.63;;;19.90;;
69854;SDS011;57146;48.140;16.304;2022-10-16T03:10:09;37.22;;;21.73;;
69854;SDS011;57146;48.140;16.304;2022-10-16T03:12:36;46.13;;;23.38;;
69854;SDS011;57146;48.140;16.304;2022-10-16T03:15:03;41.67;;;23.75;;
69854;SDS011;57146;48.140;16.304;2022-10-16T03:17:31;34.00;;;21.10;;
69854;SDS011;57146;48.140;16.304;2022-10-16T03:19:59;37.85;;;22.30;;
69854;SDS011;57146;48.140;16.304;2022-10-16T03:22:26;48.78;;;25.42;;
69854;SDS011;57146;48.140;16.304;2022-10-16T03:24:53;40.08;;;22.92;;
69854;SDS011;57146;48.140;16.304;2022-10-16T03:27:20;35.25;;;20.98;;
69854;SDS011;57146;48.140;16.304;2022-10-16T03:29:47;33.77;;;20.03;;
69854;SDS011;57146;48.140;16.304;2022-10-16T03:32:14;32.15;;;19.70;;
69854;SDS011;57146;48.140;16.304;2022-10-16T03:34:41;34.25;;;20.55;;
69854;SDS011;57146;48.140;16.304;2022-10-16T03:37:08;33.28;;;20.48;;
69854;SDS011;57146;48.140;16.304;2022-10-16T03:39:35;36.97;;;21.20;;
69854;SDS011;57146;48.140;16.304;2022-10-16T03:42:02;33.70;;;19.80;;
69854;SDS011;57146;48.140;16.304;2022-10-16T03:44:28;32.63;;;19.42;;
69854;SDS011;57146;48.140;16.304;2022-10-16T03:46:55;35.67;;;21.08;;
69854;SDS011;57146;48.140;16.304;2022-10-16T03:49:22;31.80;;;19.83;;
69854;SDS011;57146;48.140;16.304;2022-10-16T03:51:49;33.63;;;19.67;;
69854;SDS011;57146;48.140;16.304;2022-10-16T03:54:16;32.37;;;20.10;;
69854;SDS011;57146;48.140;16.304;2022-10-16T03:56:43;31.10;;;19.15;;
69854;SDS011;57146;48.140;16.304;2022-10-16T03:59:09;36.40;;;20.27;;
69854;SDS011;57146;48.140;16.304;2022-10-16T04:01:36;40.42;;;21.67;;
69854;SDS011;57146;48.140;16.304;2022-10-16T04:04:03;32.38;;;19.30;;
69854;SDS011;57146;48.140;16.304;2022-10-16T04:06:30;30.77;;;18.30;;
69854;SDS011;57146;48.140;16.304;2022-10-16T04:08:57;30.60;;;18.40;;
69854;SDS011;57146;48.140;16.304;2022-10-16T04:11:23;27.35;;;16.80;;
69854;SDS011;57146;48.140;16.304;2022-10-16T04:13:50;29.45;;;17.83;;
69854;SDS011;57146;48.140;16.304;2022-10-16T04:16:17;29.13;;;17.92;;
69854;SDS011;57146;48.140;16.304;2022-10-16T04:18:44;21.83;;;13.80;;
69854;SDS011;57146;48.140;16.304;2022-10-16T04:21:11;26.88;;;16.08;;
69854;SDS011;57146;48.140;16.304;2022-10-16T04:23:37;66.05;;;19.10;;
69854;SDS011;57146;48.140;16.304;2022-10-16T04:26:05;26.10;;;15.77;;
69854;SDS011;57146;48.140;16.304;2022-10-16T04:28:32;24.15;;;14.68;;
69854;SDS011;57146;48.140;16.304;2022-10-16T04:30:59;23.77;;;15.27;;
69854;SDS011;57146;48.140;16.304;2022-10-16T04:33:26;28.75;;;17.40;;
69854;SDS011;57146;48.140;16.304;2022-10-16T04:35:56;25.60;;;15.75;;
69854;SDS011;57146;48.140;16.304;2022-10-16T04:38:27;23.15;;;13.80;;
69854;SDS011;57146;48.140;16.304;2022-10-16T04:40:55;21.92;;;14.00;;
69854;SDS011;57146;48.140;16.304;2022-10-16T04:43:22;27.00;;;15.80;;
69854;SDS011;57146;48.140;16.304;2022-10-16T04:45:50;31.90;;;16.83;;
69854;SDS011;57146;48.140;16.304;2022-10-16T04:48:17;26.65;;;16.00;;
69854;SDS011;57146;48.140;16.304;2022-10-16T04:50:44;26.73;;;15.80;;
69854;SDS011;57146;48.140;16.304;2022-10-16T04:53:17;23.85;;;14.40;;
69854;SDS011;57146;48.140;16.304;2022-10-16T04:55:44;23.73;;;14.50;;
69854;SDS011;57146;48.140;16.304;2022-10-16T04:58:11;29.33;;;16.13;;
69854;SDS011;57146;48.140;16.304;2022-10-16T05:00:38;28.15;;;16.83;;
69854;SDS011;57146;48.140;16.304;2022-10-16T05:03:05;27.73;;;16.35;;
69854;SDS011;57146;48.140;16.304;2022-10-16T05:05:32;28.42;;;16.48;;
69854;SDS011;57146;48.140;16.304;2022-10-16T05:07:59;27.27;;;15.93;;
69854;SDS011;57146;48.140;16.304;2022-10-16T05:10:26;26.10;;;16.08;;
69854;SDS011;57146;48.140;16.304;2022-10-16T05:12:53;27.92;;;16.17;;
69854;SDS011;57146;48.140;16.304;2022-10-16T05:15:19;28.38;;;17.00;;
69854;SDS011;57146;48.140;16.304;2022-10-16T05:17:46;25.20;;;15.77;;
69854;SDS011;57146;48.140;16.304;2022-10-16T05:20:13;24.37;;;15.07;;
69854;SDS011;57146;48.140;16.304;2022-10-16T05:22:40;24.95;;;15.20;;
69854;SDS011;57146;48.140;16.304;2022-10-16T05:25:07;27.95;;;15.95;;
69854;SDS011;57146;48.140;16.304;2022-10-16T05:27:34;23.10;;;14.32;;
69854;SDS011;57146;48.140;16.304;2022-10-16T05:30:01;25.10;;;15.02;;
69854;SDS011;57146;48.140;16.304;2022-10-16T05:32:28;24.13;;;14.77;;
69854;SDS011;57146;48.140;16.304;2022-10-16T05:34:54;29.27;;;17.70;;
69854;SDS011;57146;48.140;16.304;2022-10-16T05:37:21;29.00;;;17.67;;
69854;SDS011;57146;48.140;16.304;2022-10-16T05:39:49;48.50;;;19.50;;
69854;SDS011;57146;48.140;16.304;2022-10-16T05:42:16;32.28;;;17.98;;
69854;SDS011;57146;48.140;16.304;2022-10-16T05:44:42;30.60;;;17.37;;
69854;SDS011;57146;48.140;16.304;2022-10-16T05:47:09;27.35;;;16.30;;
69854;SDS011;57146;48.140;16.304;2022-10-16T05:49:39;26.92;;;16.13;;
69854;SDS011;57146;48.140;16.304;2022-10-16T05:52:06;51.72;;;17.90;;
69854;SDS011;57146;48.140;16.304;2022-10-16T05:54:33;33.67;;;17.52;;
69854;SDS011;57146;48.140;16.304;2022-10-16T05:57:00;27.83;;;16.10;;
69854;SDS011;57146;48.140;16.304;2022-10-16T05:59:27;31.70;;;17.05;;
69854;SDS011;57146;48.140;16.304;2022-10-16T06:01:54;26.17;;;15.65;;
69854;SDS011;57146;48.140;16.304;2022-10-16T06:04:21;24.92;;;15.23;;
69854;SDS011;57146;48.140;16.304;2022-10-16T06:06:47;27.17;;;16.85;;
69854;SDS011;57146;48.140;16.304;2022-10-16T06:09:14;29.83;;;17.43;;
69854;SDS011;57146;48.140;16.304;2022-10-16T06:11:41;24.25;;;14.40;;
69854;SDS011;57146;48.140;16.304;2022-10-16T06:14:08;26.55;;;16.40;;
69854;SDS011;57146;48.140;16.304;2022-10-16T06:16:35;26.23;;;15.52;;
69854;SDS011;57146;48.140;16.304;2022-10-16T06:19:04;29.42;;;17.05;;
69854;SDS011;57146;48.140;16.304;2022-10-16T06:21:31;26.37;;;15.90;;
69854;SDS011;57146;48.140;16.304;2022-10-16T06:23:58;29.25;;;16.13;;
69854;SDS011;57146;48.140;16.304;2022-10-16T06:26:26;31.13;;;16.23;;
69854;SDS011;57146;48.140;16.304;2022-10-16T06:28:55;34.95;;;17.80;;
69854;SDS011;57146;48.140;16.304;2022-10-16T06:31:24;37.78;;;18.55;;
69854;SDS011;57146;48.140;16.304;2022-10-16T06:33:53;40.63;;;18.27;;
69854;SDS011;57146;48.140;16.304;2022-10-16T06:36:20;39.75;;;17.90;;
69854;SDS011;57146;48.140;16.304;2022-10-16T06:38:47;42.63;;;18.92;;
69854;SDS011;57146;48.140;16.304;2022-10-16T06:41:16;58.75;;;21.60;;
69854;SDS011;57146;48.140;16.304;2022-10-16T06:43:46;39.28;;;18.50;;
69854;SDS011;57146;48.140;16.304;2022-10-16T06:46:15;48.03;;;21.07;;
69854;SDS011;57146;48.140;16.304;2022-10-16T06:48:43;45.70;;;20.52;;
69854;SDS011;57146;48.140;16.304;2022-10-16T06:51:14;77.53;;;25.20;;
69854;SDS011;57146;48.140;16.304;2022-10-16T06:53:44;66.22;;;25.17;;
69854;SDS011;57146;48.140;16.304;2022-10-16T06:56:30;53.38;;;23.00;;
69854;SDS011;57146;48.140;16.304;2022-10-16T06:58:58;46.87;;;22.10;;
69854;SDS011;57146;48.140;16.304;2022-10-16T07:01:26;46.00;;;22.48;;
69854;SDS011;57146;48.140;16.304;2022-10-16T07:03:54;39.97;;;21.60;;
69854;SDS011;57146;48.140;16.304;2022-10-16T07:06:21;42.65;;;21.20;;
69854;SDS011;57146;48.140;16.304;2022-10-16T07:08:51;56.03;;;24.33;;
69854;SDS011;57146;48.140;16.304;2022-10-16T07:11:19;50.27;;;23.90;;
69854;SDS011;57146;48.140;16.304;2022-10-16T07:13:48;51.55;;;23.50;;
69854;SDS011;57146;48.140;16.304;2022-10-16T07:16:25;49.63;;;23.70;;
69854;SDS011;57146;48.140;16.304;2022-10-16T07:18:55;49.83;;;23.50;;
69854;SDS011;57146;48.140;16.304;2022-10-16T07:21:23;49.30;;;23.55;;
69854;SDS011;57146;48.140;16.304;2022-10-16T07:23:50;69.13;;;25.90;;
69854;SDS011;57146;48.140;16.304;2022-10-16T07:26:18;97.38;;;28.58;;
69854;SDS011;57146;48.140;16.304;2022-10-16T07:28:45;54.97;;;24.85;;
69854;SDS011;57146;48.140;16.304;2022-10-16T07:31:13;86.63;;;27.13;;
69854;SDS011;57146;48.140;16.304;2022-10-16T07:33:41;50.05;;;25.33;;
69854;SDS011;57146;48.140;16.304;2022-10-16T07:36:10;55.57;;;25.53;;
69854;SDS011;57146;48.140;16.304;2022-10-16T07:38:42;48.22;;;24.95;;
69854;SDS011;57146;48.140;16.304;2022-10-16T07:41:10;51.90;;;26.02;;
69854;SDS011;57146;48.140;16.304;2022-10-16T07:43:40;68.68;;;27.17;;
69854;SDS011;57146;48.140;16.304;2022-10-16T07:46:11;70.55;;;28.90;;
69854;SDS011;57146;48.140;16.304;2022-10-16T07:48:38;113.00;;;31.80;;
69854;SDS011;57146;48.140;16.304;2022-10-16T07:51:05;53.65;;;25.67;;
69854;SDS011;57146;48.140;16.304;2022-10-16T07:53:33;56.25;;;26.38;;
69854;SDS011;57146;48.140;16.304;2022-10-16T07:56:03;51.67;;;23.48;;
69854;SDS011;57146;48.140;16.304;2022-10-16T07:58:31;67.78;;;27.40;;
69854;SDS011;57146;48.140;16.304;2022-10-16T08:01:03;57.27;;;25.67;;
69854;SDS011;57146;48.140;16.304;2022-10-16T08:03:35;48.88;;;22.58;;
69854;SDS011;57146;48.140;16.304;2022-10-16T08:06:02;43.17;;;21.55;;
69854;SDS011;57146;48.140;16.304;2022-10-16T08:08:30;40.60;;;21.15;;
69854;SDS011;57146;48.140;16.304;2022-10-16T08:10:57;39.58;;;20.55;;
69854;SDS011;57146;48.140;16.304;2022-10-16T08:13:24;32.47;;;17.90;;
69854;SDS011;57146;48.140;16.304;2022-10-16T08:15:51;35.05;;;17.65;;
69854;SDS011;57146;48.140;16.304;2022-10-16T08:18:19;31.75;;;16.33;;
69854;SDS011;57146;48.140;16.304;2022-10-16T08:20:46;33.63;;;16.15;;
69854;SDS011;57146;48.140;16.304;2022-10-16T08:23:13;41.25;;;20.63;;
69854;SDS011;57146;48.140;16.304;2022-10-16T08:25:40;38.77;;;20.50;;
69854;SDS011;57146;48.140;16.304;2022-10-16T08:28:08;40.13;;;21.45;;
69854;SDS011;57146;48.140;16.304;2022-10-16T08:30:37;58.70;;;24.63;;
69854;SDS011;57146;48.140;16.304;2022-10-16T08:33:04;38.92;;;20.83;;
69854;SDS011;57146;48.140;16.304;2022-10-16T08:35:31;41.05;;;20.92;;
69854;SDS011;57146;48.140;16.304;2022-10-16T08:37:58;51.83;;;24.03;;
69854;SDS011;57146;48.140;16.304;2022-10-16T08:40:26;55.70;;;24.52;;
69854;SDS011;57146;48.140;16.304;2022-10-16T08:48:09;47.45;;;23.58;;
69854;SDS011;57146;48.140;16.304;2022-10-16T08:50:40;51.00;;;24.60;;
69854;SDS011;57146;48.140;16.304;2022-10-16T08:53:09;78.03;;;28.35;;
69854;SDS011;57146;48.140;16.304;2022-10-16T08:55:45;52.78;;;24.23;;
69854;SDS011;57146;48.140;16.304;2022-10-16T08:58:16;46.10;;;22.90;;
69854;SDS011;57146;48.140;16.304;2022-10-16T09:00:55;53.00;;;24.33;;
69854;SDS011;57146;48.140;16.304;2022-10-16T09:03:27;56.83;;;25.60;;
69854;SDS011;57146;48.140;16.304;2022-10-16T09:06:17;60.20;;;25.60;;
69854;SDS011;57146;48.140;16.304;2022-10-16T09:11:51;53.65;;;25.13;;
69854;SDS011;57146;48.140;16.304;2022-10-16T09:19:44;62.25;;;25.85;;
69854;SDS011;57146;48.140;16.304;2022-10-16T09:22:17;61.70;;;26.15;;
69854;SDS011;57146;48.140;16.304;2022-10-16T09:24:54;40.72;;;20.52;;
69854;SDS011;57146;48.140;16.304;2022-10-16T09:27:25;44.13;;;21.70;;
69854;SDS011;57146;48.140;16.304;2022-10-16T09:29:53;36.80;;;19.33;;
69854;SDS011;57146;48.140;16.304;2022-10-16T09:32:25;40.17;;;20.17;;
69854;SDS011;57146;48.140;16.304;2022-10-16T09:34:53;39.00;;;20.35;;
69854;SDS011;57146;48.140;16.304;2022-10-16T09:37:22;42.97;;;20.90;;
69854;SDS011;57146;48.140;16.304;2022-10-16T09:39:51;41.83;;;21.17;;
69854;SDS011;57146;48.140;16.304;2022-10-16T09:42:20;47.40;;;22.53;;
69854;SDS011;57146;48.140;16.304;2022-10-16T09:44:48;49.67;;;23.70;;
69854;SDS011;57146;48.140;16.304;2022-10-16T09:47:21;55.17;;;25.45;;
69854;SDS011;57146;48.140;16.304;2022-10-16T09:49:51;50.63;;;24.10;;
69854;SDS011;57146;48.140;16.304;2022-10-16T09:52:41;59.13;;;26.33;;
69854;SDS011;57146;48.140;16.304;2022-10-16T09:55:16;53.37;;;24.43;;
69854;SDS011;57146;48.140;16.304;2022-10-16T09:57:53;54.08;;;26.17;;
69854;SDS011;57146;48.140;16.304;2022-10-16T10:00:22;53.80;;;25.88;;
69854;SDS011;57146;48.140;16.304;2022-10-16T10:02:49;64.18;;;27.95;;
69854;SDS011;57146;48.140;16.304;2022-10-16T10:05:27;62.85;;;27.08;;
69854;SDS011;57146;48.140;16.304;2022-10-16T10:08:01;68.73;;;29.30;;
69854;SDS011;57146;48.140;16.304;2022-10-16T10:10:30;72.65;;;29.38;;
69854;SDS011;57146;48.140;16.304;2022-10-16T10:12:59;67.35;;;29.17;;
69854;SDS011;57146;48.140;16.304;2022-10-16T10:15:27;64.07;;;28.45;;
69854;SDS011;57146;48.140;16.304;2022-10-16T10:18:14;58.78;;;26.50;;
69854;SDS011;57146;48.140;16.304;2022-10-16T10:20:46;63.00;;;27.73;;
69854;SDS011;57146;48.140;16.304;2022-10-16T10:23:25;62.13;;;26.67;;
69854;SDS011;57146;48.140;16.304;2022-10-16T10:32:18;71.45;;;28.83;;
69854;SDS011;57146;48.140;16.304;2022-10-16T10:39:58;58.30;;;27.13;;
69854;SDS011;57146;48.140;16.304;2022-10-16T10:42:55;58.17;;;27.42;;
69854;SDS011;57146;48.140;16.304;2022-10-16T10:45:37;60.53;;;26.83;;
69854;SDS011;57146;48.140;16.304;2022-10-16T10:51:13;58.03;;;25.23;;
69854;SDS011;57146;48.140;16.304;2022-10-16T10:54:13;56.80;;;25.80;;
69854;SDS011;57146;48.140;16.304;2022-10-16T10:56:49;59.13;;;25.55;;
69854;SDS011;57146;48.140;16.304;2022-10-16T10:59:37;64.35;;;27.15;;
69854;SDS011;57146;48.140;16.304;2022-10-16T11:02:21;51.03;;;24.60;;
69854;SDS011;57146;48.140;16.304;2022-10-16T11:07:51;51.83;;;24.42;;
69854;SDS011;57146;48.140;16.304;2022-10-16T11:15:47;51.77;;;24.03;;
69854;SDS011;57146;48.140;16.304;2022-10-16T11:18:25;52.65;;;24.95;;
69854;SDS011;57146;48.140;16.304;2022-10-16T11:21:00;61.42;;;27.77;;
69854;SDS011;57146;48.140;16.304;2022-10-16T11:26:21;54.13;;;26.38;;
69854;SDS011;57146;48.140;16.304;2022-10-16T11:28:54;45.77;;;23.47;;
69854;SDS011;57146;48.140;16.304;2022-10-16T11:34:04;50.42;;;25.02;;
69854;SDS011;57146;48.140;16.304;2022-10-16T11:36:35;51.58;;;24.85;;
69854;SDS011;57146;48.140;16.304;2022-10-16T11:41:34;48.73;;;24.90;;
69854;SDS011;57146;48.140;16.304;2022-10-16T11:44:20;44.10;;;22.20;;
69854;SDS011;57146;48.140;16.304;2022-10-16T11:55:49;47.17;;;24.40;;
69854;SDS011;57146;48.140;16.304;2022-10-16T12:01:52;54.72;;;27.95;;
69854;SDS011;57146;48.140;16.304;2022-10-16T12:07:20;54.20;;;27.98;;
69854;SDS011;57146;48.140;16.304;2022-10-16T12:09:51;62.47;;;29.57;;
69854;SDS011;57146;48.140;16.304;2022-10-16T12:12:27;50.15;;;26.02;;
69854;SDS011;57146;48.140;16.304;2022-10-16T12:15:21;52.63;;;26.35;;
69854;SDS011;57146;48.140;16.304;2022-10-16T12:18:23;50.15;;;25.70;;
69854;SDS011;57146;48.140;16.304;2022-10-16T12:20:55;44.30;;;24.35;;
69854;SDS011;57146;48.140;16.304;2022-10-16T12:23:22;47.47;;;25.80;;
69854;SDS011;57146;48.140;16.304;2022-10-16T12:25:53;48.55;;;25.60;;
69854;SDS011;57146;48.140;16.304;2022-10-16T12:28:25;49.10;;;25.17;;
69854;SDS011;57146;48.140;16.304;2022-10-16T12:31:03;46.45;;;24.13;;
69854;SDS011;57146;48.140;16.304;2022-10-16T12:33:33;49.35;;;25.88;;
69854;SDS011;57146;48.140;16.304;2022-10-16T12:36:03;54.97;;;28.07;;
69854;SDS011;57146;48.140;16.304;2022-10-16T12:38:36;44.28;;;23.45;;
69854;SDS011;57146;48.140;16.304;2022-10-16T12:41:05;49.80;;;26.67;;
69854;SDS011;57146;48.140;16.304;2022-10-16T12:43:52;50.08;;;27.27;;
69854;SDS011;57146;48.140;16.304;2022-10-16T12:48:48;49.97;;;26.17;;
69854;SDS011;57146;48.140;16.304;2022-10-16T12:51:36;48.25;;;26.33;;
69854;SDS011;57146;48.140;16.304;2022-10-16T13:02:50;48.80;;;25.40;;
69854;SDS011;57146;48.140;16.304;2022-10-16T13:26:28;48.33;;;27.55;;
69854;SDS011;57146;48.140;16.304;2022-10-16T13:29:07;52.33;;;28.57;;
69854;SDS011;57146;48.140;16.304;2022-10-16T13:31:36;51.53;;;28.48;;
69854;SDS011;57146;48.140;16.304;2022-10-16T13:34:04;46.75;;;25.80;;
69854;SDS011;57146;48.140;16.304;2022-10-16T13:36:49;50.05;;;27.40;;
69854;SDS011;57146;48.140;16.304;2022-10-16T13:39:27;48.97;;;28.30;;
69854;SDS011;57146;48.140;16.304;2022-10-16T13:44:39;50.22;;;27.35;;
69854;SDS011;57146;48.140;16.304;2022-10-16T13:47:28;51.63;;;28.70;;
69854;SDS011;57146;48.140;16.304;2022-10-16T13:50:00;51.53;;;28.75;;
69854;SDS011;57146;48.140;16.304;2022-10-16T13:52:32;50.88;;;28.50;;
69854;SDS011;57146;48.140;16.304;2022-10-16T13:54:59;54.07;;;30.60;;
69854;SDS011;57146;48.140;16.304;2022-10-16T13:57:28;49.50;;;27.98;;
69854;SDS011;57146;48.140;16.304;2022-10-16T13:59:55;52.45;;;28.70;;
69854;SDS011;57146;48.140;16.304;2022-10-16T14:02:25;50.03;;;27.35;;
69854;SDS011;57146;48.140;16.304;2022-10-16T14:04:53;50.22;;;27.83;;
69854;SDS011;57146;48.140;16.304;2022-10-16T14:07:28;50.63;;;28.03;;
69854;SDS011;57146;48.140;16.304;2022-10-16T14:10:00;50.45;;;27.88;;
69854;SDS011;57146;48.140;16.304;2022-10-16T14:12:30;49.83;;;28.30;;
69854;SDS011;57146;48.140;16.304;2022-10-16T14:14:58;47.92;;;27.70;;
69854;SDS011;57146;48.140;16.304;2022-10-16T14:17:29;49.50;;;28.73;;
69854;SDS011;57146;48.140;16.304;2022-10-16T14:20:00;48.33;;;27.70;;
69854;SDS011;57146;48.140;16.304;2022-10-16T14:22:34;47.53;;;27.10;;
69854;SDS011;57146;48.140;16.304;2022-10-16T14:27:57;48.83;;;28.15;;
69854;SDS011;57146;48.140;16.304;2022-10-16T14:30:25;49.55;;;28.63;;
69854;SDS011;57146;48.140;16.304;2022-10-16T14:33:00;49.23;;;27.73;;
69854;SDS011;57146;48.140;16.304;2022-10-16T14:35:35;47.92;;;27.50;;
69854;SDS011;57146;48.140;16.304;2022-10-16T14:38:05;49.38;;;28.40;;
69854;SDS011;57146;48.140;16.304;2022-10-16T14:40:45;50.63;;;27.85;;
69854;SDS011;57146;48.140;16.304;2022-10-16T14:43:18;48.95;;;27.23;;
69854;SDS011;57146;48.140;16.304;2022-10-16T14:46:10;53.53;;;29.33;;
69854;SDS011;57146;48.140;16.304;2022-10-16T14:48:44;51.17;;;29.20;;
69854;SDS011;57146;48.140;16.304;2022-10-16T14:51:17;52.70;;;29.85;;
69854;SDS011;57146;48.140;16.304;2022-10-16T14:53:46;49.65;;;28.85;;
69854;SDS011;57146;48.140;16.304;2022-10-16T14:56:20;50.58;;;28.73;;
69854;SDS011;57146;48.140;16.304;2022-10-16T14:58:50;50.03;;;27.83;;
69854;SDS011;57146;48.140;16.304;2022-10-16T15:01:19;49.15;;;28.25;;
69854;SDS011;57146;48.140;16.304;2022-10-16T15:03:46;49.17;;;28.10;;
69854;SDS011;57146;48.140;16.304;2022-10-16T15:06:14;49.53;;;28.27;;
69854;SDS011;57146;48.140;16.304;2022-10-16T15:08:42;49.25;;;28.80;;
69854;SDS011;57146;48.140;16.304;2022-10-16T15:11:14;49.87;;;28.37;;
69854;SDS011;57146;48.140;16.304;2022-10-16T15:13:43;48.47;;;27.70;;
69854;SDS011;57146;48.140;16.304;2022-10-16T15:16:12;50.95;;;28.45;;
69854;SDS011;57146;48.140;16.304;2022-10-16T15:18:41;48.80;;;28.02;;
69854;SDS011;57146;48.140;16.304;2022-10-16T15:21:11;50.05;;;27.98;;
69854;SDS011;57146;48.140;16.304;2022-10-16T15:23:49;46.67;;;26.73;;
69854;SDS011;57146;48.140;16.304;2022-10-16T15:26:16;47.25;;;28.60;;
69854;SDS011;57146;48.140;16.304;2022-10-16T15:28:42;51.13;;;28.98;;
69854;SDS011;57146;48.140;16.304;2022-10-16T15:31:09;52.03;;;28.90;;
69854;SDS011;57146;48.140;16.304;2022-10-16T15:33:36;48.17;;;28.77;;
69854;SDS011;57146;48.140;16.304;2022-10-16T15:36:05;51.30;;;28.43;;
69854;SDS011;57146;48.140;16.304;2022-10-16T15:38:33;50.28;;;29.05;;
69854;SDS011;57146;48.140;16.304;2022-10-16T15:41:00;50.00;;;29.17;;
69854;SDS011;57146;48.140;16.304;2022-10-16T15:43:27;47.17;;;26.27;;
69854;SDS011;57146;48.140;16.304;2022-10-16T15:48:32;50.50;;;28.10;;
69854;SDS011;57146;48.140;16.304;2022-10-16T15:50:59;46.58;;;27.45;;
69854;SDS011;57146;48.140;16.304;2022-10-16T15:53:30;51.42;;;28.85;;
69854;SDS011;57146;48.140;16.304;2022-10-16T15:55:57;50.03;;;27.70;;
69854;SDS011;57146;48.140;16.304;2022-10-16T15:58:27;54.63;;;29.42;;
69854;SDS011;57146;48.140;16.304;2022-10-16T16:00:55;51.73;;;29.03;;
69854;SDS011;57146;48.140;16.304;2022-10-16T16:03:23;49.58;;;28.08;;
69854;SDS011;57146;48.140;16.304;2022-10-16T16:05:50;46.92;;;26.65;;
69854;SDS011;57146;48.140;16.304;2022-10-16T16:08:17;47.72;;;27.45;;
69854;SDS011;57146;48.140;16.304;2022-10-16T16:10:44;52.65;;;29.83;;
69854;SDS011;57146;48.140;16.304;2022-10-16T16:13:11;48.17;;;26.83;;
69854;SDS011;57146;48.140;16.304;2022-10-16T16:15:39;48.17;;;28.17;;
69854;SDS011;57146;48.140;16.304;2022-10-16T16:18:06;49.65;;;27.60;;
69854;SDS011;57146;48.140;16.304;2022-10-16T16:20:34;47.05;;;27.52;;
69854;SDS011;57146;48.140;16.304;2022-10-16T16:23:00;50.50;;;28.38;;
69854;SDS011;57146;48.140;16.304;2022-10-16T16:25:27;47.93;;;27.03;;
69854;SDS011;57146;48.140;16.304;2022-10-16T16:27:54;49.72;;;27.00;;
69854;SDS011;57146;48.140;16.304;2022-10-16T16:30:21;46.95;;;26.15;;
69854;SDS011;57146;48.140;16.304;2022-10-16T16:32:53;50.60;;;28.08;;
69854;SDS011;57146;48.140;16.304;2022-10-16T16:35:20;50.50;;;28.75;;